Dai65tenjinmaru — JJ3950 — position and weather

sailwx.info

Track history (hours):
 
Tides and Currents Weather Stations Pressure Air Temp Water Temp Dewpoint Dewpoint Depression Visibility Wind Speed Wind Dir Waves Ship Positions

Dai65tenjinmaru

Last reported at 2018-Jun-20 01:57 UTC. Time now 2018-Jun-25 05:45 UTC.
Position N 35°11' E 139°46'.

Length 86 m; draft 5.6 m.

Type: Cargo ship. MMSI: 431301101.

Date/timePositionNaut miles runAvg speedWind from/ knotsBaromVisibWave heightAir tempDewpointWater temp
2018-Jun-20 01:57N 35°11' E 139°46'612.6
2018-Jun-20 01:31N 35°17' E 139°45'612.5
2018-Jun-20 01:00N 35°22' E 139°42'611.5
2018-Jun-20 00:30N 35°28' E 139°42'2 4.0
2018-Jun-19 23:58N 35°30' E 139°43'0 0.0
2018-Jun-19 23:28N 35°30' E 139°43'0 0.0
2018-Jun-19 22:58N 35°30' E 139°43'0 0.0
2018-Jun-19 22:28N 35°30' E 139°43'0 0.0
2018-Jun-19 21:46N 35°30' E 139°43'0 0.0
2018-Jun-19 21:22N 35°30' E 139°43'0 0.0
2018-Jun-19 20:58N 35°30' E 139°43'1 2.0
2018-Jun-19 20:30N 35°29' E 139°43'3 7.0
2018-Jun-19 20:00N 35°26' E 139°45'2 3.8
2018-Jun-19 19:29N 35°24' E 139°45'0 0.0
2018-Jun-19 18:59N 35°24' E 139°45'0 0.0
2018-Jun-19 18:29N 35°24' E 139°45'0 0.0
2018-Jun-19 17:59N 35°24' E 139°45'0 0.0
2018-Jun-19 17:29N 35°24' E 139°45'0 0.0
2018-Jun-19 16:59N 35°24' E 139°45'0 0.0
2018-Jun-19 16:29N 35°24' E 139°45'0 0.0
2018-Jun-19 15:59N 35°24' E 139°45'0 0.0
2018-Jun-19 15:29N 35°24' E 139°45'0 0.0
2018-Jun-19 14:59N 35°24' E 139°45'0 0.0
2018-Jun-19 14:29N 35°24' E 139°45'0 0.0
2018-Jun-19 13:59N 35°24' E 139°45'0 0.0
2018-Jun-19 13:29N 35°24' E 139°45'0 0.0
2018-Jun-19 12:59N 35°24' E 139°45'0 0.0
2018-Jun-19 12:29N 35°24' E 139°45'0 0.0
2018-Jun-19 11:59N 35°24' E 139°45'0 0.0
2018-Jun-19 11:29N 35°24' E 139°45'0 0.1
2018-Jun-19 10:56N 35°24' E 139°45'0 0.0
2018-Jun-19 10:29N 35°24' E 139°45'1 2.0
2018-Jun-19 10:00N 35°23' E 139°46'611.8
2018-Jun-19 09:30N 35°17' E 139°45'611.8
2018-Jun-19 09:00N 35°12' E 139°46'  
Track history (hours):
 
Tides and Currents Weather Stations Pressure Air Temp Water Temp Dewpoint Dewpoint Depression Visibility Wind Speed Wind Dir Waves Ship Positions

Dai65tenjinmaru

Last reported at 2018-Jun-20 01:57 UTC. Time now 2018-Jun-25 05:45 UTC.
Position N 35°11' E 139°46'.

Length 86 m; draft 5.6 m.

Type: Cargo ship. MMSI: 431301101.

Date/timePositionNaut miles runAvg speedWind from/ knotsBaromVisibWave heightAir tempDewpointWater temp
2018-Jun-20 01:57N 35°11' E 139°46'612.6
2018-Jun-20 01:31N 35°17' E 139°45'612.5
2018-Jun-20 01:00N 35°22' E 139°42'611.5
2018-Jun-20 00:30N 35°28' E 139°42'2 4.0
2018-Jun-19 23:58N 35°30' E 139°43'0 0.0
2018-Jun-19 23:28N 35°30' E 139°43'0 0.0
2018-Jun-19 22:58N 35°30' E 139°43'0 0.0
2018-Jun-19 22:28N 35°30' E 139°43'0 0.0
2018-Jun-19 21:46N 35°30' E 139°43'0 0.0
2018-Jun-19 21:22N 35°30' E 139°43'0 0.0
2018-Jun-19 20:58N 35°30' E 139°43'1 2.0
2018-Jun-19 20:30N 35°29' E 139°43'3 7.0
2018-Jun-19 20:00N 35°26' E 139°45'2 3.8
2018-Jun-19 19:29N 35°24' E 139°45'0 0.0
2018-Jun-19 18:59N 35°24' E 139°45'0 0.0
2018-Jun-19 18:29N 35°24' E 139°45'0 0.0
2018-Jun-19 17:59N 35°24' E 139°45'0 0.0
2018-Jun-19 17:29N 35°24' E 139°45'0 0.0
2018-Jun-19 16:59N 35°24' E 139°45'0 0.0
2018-Jun-19 16:29N 35°24' E 139°45'0 0.0
2018-Jun-19 15:59N 35°24' E 139°45'0 0.0
2018-Jun-19 15:29N 35°24' E 139°45'0 0.0
2018-Jun-19 14:59N 35°24' E 139°45'0 0.0
2018-Jun-19 14:29N 35°24' E 139°45'0 0.0
2018-Jun-19 13:59N 35°24' E 139°45'0 0.0
2018-Jun-19 13:29N 35°24' E 139°45'0 0.0
2018-Jun-19 12:59N 35°24' E 139°45'0 0.0
2018-Jun-19 12:29N 35°24' E 139°45'0 0.0
2018-Jun-19 11:59N 35°24' E 139°45'0 0.0
2018-Jun-19 11:29N 35°24' E 139°45'0 0.1
2018-Jun-19 10:56N 35°24' E 139°45'0 0.0
2018-Jun-19 10:29N 35°24' E 139°45'1 2.0
2018-Jun-19 10:00N 35°23' E 139°46'611.8
2018-Jun-19 09:30N 35°17' E 139°45'611.8
2018-Jun-19 09:00N 35°12' E 139°46'  

Dump ship's entire track history